sensor_id;sensor_type;location;lat;lon;timestamp;P1;durP1;ratioP1;P2;durP2;ratioP2
49366;SDS011;35245;52.026;8.540;2022-07-10T00:00:33;7.45;;;1.73;;
49366;SDS011;35245;52.026;8.540;2022-07-10T00:03:01;4.07;;;1.10;;
49366;SDS011;35245;52.026;8.540;2022-07-10T00:05:28;5.18;;;1.17;;
49366;SDS011;35245;52.026;8.540;2022-07-10T00:07:55;7.15;;;1.48;;
49366;SDS011;35245;52.026;8.540;2022-07-10T00:10:24;6.93;;;1.35;;
49366;SDS011;35245;52.026;8.540;2022-07-10T00:12:51;4.97;;;1.55;;
49366;SDS011;35245;52.026;8.540;2022-07-10T00:15:18;8.95;;;2.28;;
49366;SDS011;35245;52.026;8.540;2022-07-10T00:17:45;4.60;;;1.00;;
49366;SDS011;35245;52.026;8.540;2022-07-10T00:20:13;5.43;;;1.40;;
49366;SDS011;35245;52.026;8.540;2022-07-10T00:22:40;5.18;;;1.40;;
49366;SDS011;35245;52.026;8.540;2022-07-10T00:25:09;4.25;;;1.23;;
49366;SDS011;35245;52.026;8.540;2022-07-10T00:27:38;5.18;;;1.27;;
49366;SDS011;35245;52.026;8.540;2022-07-10T00:30:06;5.07;;;1.30;;
49366;SDS011;35245;52.026;8.540;2022-07-10T00:32:34;7.20;;;1.50;;
49366;SDS011;35245;52.026;8.540;2022-07-10T00:35:01;10.15;;;1.95;;
49366;SDS011;35245;52.026;8.540;2022-07-10T00:37:30;4.30;;;1.45;;
49366;SDS011;35245;52.026;8.540;2022-07-10T00:39:57;7.57;;;1.90;;
49366;SDS011;35245;52.026;8.540;2022-07-10T00:42:25;5.07;;;1.88;;
49366;SDS011;35245;52.026;8.540;2022-07-10T00:44:53;4.63;;;1.58;;
49366;SDS011;35245;52.026;8.540;2022-07-10T00:47:21;5.63;;;1.30;;
49366;SDS011;35245;52.026;8.540;2022-07-10T00:49:48;7.18;;;1.60;;
49366;SDS011;35245;52.026;8.540;2022-07-10T00:52:16;6.00;;;1.52;;
49366;SDS011;35245;52.026;8.540;2022-07-10T00:54:44;9.38;;;1.88;;
49366;SDS011;35245;52.026;8.540;2022-07-10T00:57:13;5.45;;;1.30;;
49366;SDS011;35245;52.026;8.540;2022-07-10T00:59:41;4.53;;;1.50;;
49366;SDS011;35245;52.026;8.540;2022-07-10T01:02:09;7.70;;;1.45;;
49366;SDS011;35245;52.026;8.540;2022-07-10T01:04:36;8.05;;;1.48;;
49366;SDS011;35245;52.026;8.540;2022-07-10T01:07:04;8.35;;;2.03;;
49366;SDS011;35245;52.026;8.540;2022-07-10T01:09:31;6.85;;;1.52;;
49366;SDS011;35245;52.026;8.540;2022-07-10T01:11:59;5.63;;;1.48;;
49366;SDS011;35245;52.026;8.540;2022-07-10T01:14:27;7.07;;;1.65;;
49366;SDS011;35245;52.026;8.540;2022-07-10T01:16:54;8.95;;;1.50;;
49366;SDS011;35245;52.026;8.540;2022-07-10T01:19:23;8.73;;;1.63;;
49366;SDS011;35245;52.026;8.540;2022-07-10T01:21:51;7.82;;;1.73;;
49366;SDS011;35245;52.026;8.540;2022-07-10T01:24:18;10.75;;;2.92;;
49366;SDS011;35245;52.026;8.540;2022-07-10T01:26:45;6.68;;;1.55;;
49366;SDS011;35245;52.026;8.540;2022-07-10T01:29:13;8.38;;;2.22;;
49366;SDS011;35245;52.026;8.540;2022-07-10T01:31:40;8.48;;;1.83;;
49366;SDS011;35245;52.026;8.540;2022-07-10T01:34:08;8.48;;;1.75;;
49366;SDS011;35245;52.026;8.540;2022-07-10T01:36:35;9.68;;;1.65;;
49366;SDS011;35245;52.026;8.540;2022-07-10T01:39:04;8.00;;;1.70;;
49366;SDS011;35245;52.026;8.540;2022-07-10T01:41:31;8.35;;;1.98;;
49366;SDS011;35245;52.026;8.540;2022-07-10T01:43:59;7.03;;;2.00;;
49366;SDS011;35245;52.026;8.540;2022-07-10T01:46:26;9.77;;;2.25;;
49366;SDS011;35245;52.026;8.540;2022-07-10T01:48:53;12.35;;;1.70;;
49366;SDS011;35245;52.026;8.540;2022-07-10T01:51:20;5.40;;;1.10;;
49366;SDS011;35245;52.026;8.540;2022-07-10T01:53:47;8.18;;;1.85;;
49366;SDS011;35245;52.026;8.540;2022-07-10T01:56:15;7.97;;;1.60;;
49366;SDS011;35245;52.026;8.540;2022-07-10T01:58:42;11.20;;;2.33;;
49366;SDS011;35245;52.026;8.540;2022-07-10T02:01:10;8.43;;;1.45;;
49366;SDS011;35245;52.026;8.540;2022-07-10T02:03:37;10.10;;;1.45;;
49366;SDS011;35245;52.026;8.540;2022-07-10T02:06:22;6.15;;;1.40;;
49366;SDS011;35245;52.026;8.540;2022-07-10T02:08:49;5.80;;;1.42;;
49366;SDS011;35245;52.026;8.540;2022-07-10T02:11:17;10.20;;;1.50;;
49366;SDS011;35245;52.026;8.540;2022-07-10T02:13:44;5.07;;;1.02;;
49366;SDS011;35245;52.026;8.540;2022-07-10T02:16:11;10.35;;;2.28;;
49366;SDS011;35245;52.026;8.540;2022-07-10T02:18:38;8.68;;;1.67;;
49366;SDS011;35245;52.026;8.540;2022-07-10T02:21:06;7.50;;;1.77;;
49366;SDS011;35245;52.026;8.540;2022-07-10T02:23:33;6.55;;;2.13;;
49366;SDS011;35245;52.026;8.540;2022-07-10T02:26:00;10.43;;;1.52;;
49366;SDS011;35245;52.026;8.540;2022-07-10T02:28:29;11.00;;;2.00;;
49366;SDS011;35245;52.026;8.540;2022-07-10T02:30:56;6.65;;;1.52;;
49366;SDS011;35245;52.026;8.540;2022-07-10T02:33:23;11.95;;;2.05;;
49366;SDS011;35245;52.026;8.540;2022-07-10T02:35:51;6.97;;;1.90;;
49366;SDS011;35245;52.026;8.540;2022-07-10T02:38:18;7.88;;;1.90;;
49366;SDS011;35245;52.026;8.540;2022-07-10T02:40:47;10.10;;;1.38;;
49366;SDS011;35245;52.026;8.540;2022-07-10T02:43:14;7.88;;;1.63;;
49366;SDS011;35245;52.026;8.540;2022-07-10T02:45:43;6.88;;;1.50;;
49366;SDS011;35245;52.026;8.540;2022-07-10T02:48:10;5.43;;;1.40;;
49366;SDS011;35245;52.026;8.540;2022-07-10T02:50:37;8.18;;;1.70;;
49366;SDS011;35245;52.026;8.540;2022-07-10T02:53:04;5.50;;;1.77;;
49366;SDS011;35245;52.026;8.540;2022-07-10T02:55:31;6.53;;;1.58;;
49366;SDS011;35245;52.026;8.540;2022-07-10T02:57:59;7.28;;;1.55;;
49366;SDS011;35245;52.026;8.540;2022-07-10T03:00:26;8.52;;;1.75;;
49366;SDS011;35245;52.026;8.540;2022-07-10T03:02:55;9.98;;;1.75;;
49366;SDS011;35245;52.026;8.540;2022-07-10T03:05:22;6.82;;;1.65;;
49366;SDS011;35245;52.026;8.540;2022-07-10T03:07:49;9.25;;;1.85;;
49366;SDS011;35245;52.026;8.540;2022-07-10T03:10:16;5.57;;;1.63;;
49366;SDS011;35245;52.026;8.540;2022-07-10T03:12:43;8.00;;;1.73;;
49366;SDS011;35245;52.026;8.540;2022-07-10T03:15:10;8.95;;;1.50;;
49366;SDS011;35245;52.026;8.540;2022-07-10T03:17:37;13.05;;;2.35;;
49366;SDS011;35245;52.026;8.540;2022-07-10T03:20:06;8.00;;;1.95;;
49366;SDS011;35245;52.026;8.540;2022-07-10T03:22:34;17.70;;;2.75;;
49366;SDS011;35245;52.026;8.540;2022-07-10T03:25:04;13.63;;;2.38;;
49366;SDS011;35245;52.026;8.540;2022-07-10T03:27:32;7.40;;;1.52;;
49366;SDS011;35245;52.026;8.540;2022-07-10T03:29:59;8.05;;;1.58;;
49366;SDS011;35245;52.026;8.540;2022-07-10T03:32:26;9.63;;;1.58;;
49366;SDS011;35245;52.026;8.540;2022-07-10T03:34:53;13.10;;;2.15;;
49366;SDS011;35245;52.026;8.540;2022-07-10T03:37:22;9.10;;;1.73;;
49366;SDS011;35245;52.026;8.540;2022-07-10T03:39:49;9.95;;;2.20;;
49366;SDS011;35245;52.026;8.540;2022-07-10T03:42:16;7.55;;;1.60;;
49366;SDS011;35245;52.026;8.540;2022-07-10T03:44:43;8.95;;;1.77;;
49366;SDS011;35245;52.026;8.540;2022-07-10T03:47:10;9.70;;;1.80;;
49366;SDS011;35245;52.026;8.540;2022-07-10T03:49:37;9.48;;;1.88;;
49366;SDS011;35245;52.026;8.540;2022-07-10T03:52:05;8.52;;;1.90;;
49366;SDS011;35245;52.026;8.540;2022-07-10T03:54:34;6.93;;;1.83;;
49366;SDS011;35245;52.026;8.540;2022-07-10T03:57:01;11.10;;;2.97;;
49366;SDS011;35245;52.026;8.540;2022-07-10T03:59:45;4.82;;;1.40;;
49366;SDS011;35245;52.026;8.540;2022-07-10T04:02:12;4.60;;;1.63;;
49366;SDS011;35245;52.026;8.540;2022-07-10T04:04:40;8.88;;;1.85;;
49366;SDS011;35245;52.026;8.540;2022-07-10T04:07:07;10.00;;;1.88;;
49366;SDS011;35245;52.026;8.540;2022-07-10T04:09:37;12.10;;;2.10;;
49366;SDS011;35245;52.026;8.540;2022-07-10T04:12:04;10.13;;;1.98;;
49366;SDS011;35245;52.026;8.540;2022-07-10T04:14:32;9.48;;;1.40;;
49366;SDS011;35245;52.026;8.540;2022-07-10T04:16:59;10.48;;;1.80;;
49366;SDS011;35245;52.026;8.540;2022-07-10T04:19:26;8.73;;;1.73;;
49366;SDS011;35245;52.026;8.540;2022-07-10T04:21:53;7.45;;;1.67;;
49366;SDS011;35245;52.026;8.540;2022-07-10T04:24:20;8.52;;;1.55;;
49366;SDS011;35245;52.026;8.540;2022-07-10T04:26:48;7.38;;;1.35;;
49366;SDS011;35245;52.026;8.540;2022-07-10T04:29:15;8.05;;;1.77;;
49366;SDS011;35245;52.026;8.540;2022-07-10T04:31:42;7.45;;;1.50;;
49366;SDS011;35245;52.026;8.540;2022-07-10T04:34:09;8.85;;;1.70;;
49366;SDS011;35245;52.026;8.540;2022-07-10T04:36:36;4.50;;;1.52;;
49366;SDS011;35245;52.026;8.540;2022-07-10T04:39:03;8.98;;;1.83;;
49366;SDS011;35245;52.026;8.540;2022-07-10T04:41:30;7.78;;;1.80;;
49366;SDS011;35245;52.026;8.540;2022-07-10T04:43:58;5.28;;;1.30;;
49366;SDS011;35245;52.026;8.540;2022-07-10T04:46:26;5.70;;;1.27;;
49366;SDS011;35245;52.026;8.540;2022-07-10T04:48:53;7.13;;;1.50;;
49366;SDS011;35245;52.026;8.540;2022-07-10T04:51:20;7.65;;;1.95;;
49366;SDS011;35245;52.026;8.540;2022-07-10T04:53:48;6.18;;;1.40;;
49366;SDS011;35245;52.026;8.540;2022-07-10T04:56:15;6.93;;;1.40;;
49366;SDS011;35245;52.026;8.540;2022-07-10T04:58:42;7.18;;;1.50;;
49366;SDS011;35245;52.026;8.540;2022-07-10T05:01:11;7.20;;;1.65;;
49366;SDS011;35245;52.026;8.540;2022-07-10T05:03:38;8.38;;;1.50;;
49366;SDS011;35245;52.026;8.540;2022-07-10T05:06:05;5.43;;;1.63;;
49366;SDS011;35245;52.026;8.540;2022-07-10T05:08:32;8.52;;;1.83;;
49366;SDS011;35245;52.026;8.540;2022-07-10T05:10:59;10.30;;;2.05;;
49366;SDS011;35245;52.026;8.540;2022-07-10T05:13:26;9.60;;;1.55;;
49366;SDS011;35245;52.026;8.540;2022-07-10T05:15:53;7.53;;;1.83;;
49366;SDS011;35245;52.026;8.540;2022-07-10T05:18:22;9.48;;;1.80;;
49366;SDS011;35245;52.026;8.540;2022-07-10T05:20:51;7.57;;;1.52;;
49366;SDS011;35245;52.026;8.540;2022-07-10T05:23:18;6.25;;;1.67;;
49366;SDS011;35245;52.026;8.540;2022-07-10T05:25:45;6.15;;;1.60;;
49366;SDS011;35245;52.026;8.540;2022-07-10T05:28:12;14.30;;;2.58;;
49366;SDS011;35245;52.026;8.540;2022-07-10T05:30:39;7.82;;;1.45;;
49366;SDS011;35245;52.026;8.540;2022-07-10T05:33:07;10.00;;;1.80;;
49366;SDS011;35245;52.026;8.540;2022-07-10T05:35:35;7.57;;;1.58;;
49366;SDS011;35245;52.026;8.540;2022-07-10T05:38:02;9.55;;;1.80;;
49366;SDS011;35245;52.026;8.540;2022-07-10T05:40:29;8.65;;;1.60;;
49366;SDS011;35245;52.026;8.540;2022-07-10T05:42:58;10.02;;;1.83;;
49366;SDS011;35245;52.026;8.540;2022-07-10T05:45:26;9.30;;;1.80;;
49366;SDS011;35245;52.026;8.540;2022-07-10T05:47:53;10.13;;;1.83;;
49366;SDS011;35245;52.026;8.540;2022-07-10T05:50:20;9.73;;;2.00;;
49366;SDS011;35245;52.026;8.540;2022-07-10T05:52:49;7.13;;;1.75;;
49366;SDS011;35245;52.026;8.540;2022-07-10T05:55:16;7.32;;;1.63;;
49366;SDS011;35245;52.026;8.540;2022-07-10T05:57:43;10.93;;;2.13;;
49366;SDS011;35245;52.026;8.540;2022-07-10T06:00:10;10.05;;;1.90;;
49366;SDS011;35245;52.026;8.540;2022-07-10T06:02:38;8.18;;;1.55;;
49366;SDS011;35245;52.026;8.540;2022-07-10T06:05:05;12.73;;;2.78;;
49366;SDS011;35245;52.026;8.540;2022-07-10T06:07:33;8.48;;;1.90;;
49366;SDS011;35245;52.026;8.540;2022-07-10T06:10:02;10.32;;;2.20;;
49366;SDS011;35245;52.026;8.540;2022-07-10T06:12:30;8.15;;;1.80;;
49366;SDS011;35245;52.026;8.540;2022-07-10T06:14:57;9.80;;;2.00;;
49366;SDS011;35245;52.026;8.540;2022-07-10T06:17:24;8.70;;;2.03;;
49366;SDS011;35245;52.026;8.540;2022-07-10T06:19:51;8.73;;;1.83;;
49366;SDS011;35245;52.026;8.540;2022-07-10T06:22:19;9.13;;;1.48;;
49366;SDS011;35245;52.026;8.540;2022-07-10T06:25:03;8.13;;;2.00;;
49366;SDS011;35245;52.026;8.540;2022-07-10T06:27:31;11.15;;;1.67;;
49366;SDS011;35245;52.026;8.540;2022-07-10T06:29:59;6.50;;;1.85;;
49366;SDS011;35245;52.026;8.540;2022-07-10T06:32:26;8.02;;;1.60;;
49366;SDS011;35245;52.026;8.540;2022-07-10T06:34:54;10.45;;;1.80;;
49366;SDS011;35245;52.026;8.540;2022-07-10T06:37:21;5.63;;;1.45;;
49366;SDS011;35245;52.026;8.540;2022-07-10T06:39:48;11.77;;;2.00;;
49366;SDS011;35245;52.026;8.540;2022-07-10T06:42:17;6.35;;;1.60;;
49366;SDS011;35245;52.026;8.540;2022-07-10T06:44:44;11.93;;;2.13;;
49366;SDS011;35245;52.026;8.540;2022-07-10T06:47:11;5.13;;;1.33;;
49366;SDS011;35245;52.026;8.540;2022-07-10T06:49:57;8.43;;;1.50;;
49366;SDS011;35245;52.026;8.540;2022-07-10T06:52:24;9.18;;;1.70;;
49366;SDS011;35245;52.026;8.540;2022-07-10T06:54:52;9.48;;;1.48;;
49366;SDS011;35245;52.026;8.540;2022-07-10T06:57:20;12.13;;;2.17;;
49366;SDS011;35245;52.026;8.540;2022-07-10T06:59:47;6.05;;;1.40;;
49366;SDS011;35245;52.026;8.540;2022-07-10T07:02:14;7.93;;;1.60;;
49366;SDS011;35245;52.026;8.540;2022-07-10T07:04:41;12.07;;;2.70;;
49366;SDS011;35245;52.026;8.540;2022-07-10T07:07:09;5.78;;;1.50;;
49366;SDS011;35245;52.026;8.540;2022-07-10T07:09:36;6.65;;;1.55;;
49366;SDS011;35245;52.026;8.540;2022-07-10T07:12:04;10.43;;;1.92;;
49366;SDS011;35245;52.026;8.540;2022-07-10T07:14:33;10.98;;;2.17;;
49366;SDS011;35245;52.026;8.540;2022-07-10T07:17:00;9.57;;;2.10;;
49366;SDS011;35245;52.026;8.540;2022-07-10T07:19:31;14.50;;;1.85;;
49366;SDS011;35245;52.026;8.540;2022-07-10T07:22:18;12.45;;;2.47;;
49366;SDS011;35245;52.026;8.540;2022-07-10T07:25:02;12.15;;;2.63;;
49366;SDS011;35245;52.026;8.540;2022-07-10T07:27:30;7.10;;;2.17;;
49366;SDS011;35245;52.026;8.540;2022-07-10T07:29:58;12.43;;;1.83;;
49366;SDS011;35245;52.026;8.540;2022-07-10T07:32:28;13.60;;;2.33;;
49366;SDS011;35245;52.026;8.540;2022-07-10T07:34:55;9.30;;;1.80;;
49366;SDS011;35245;52.026;8.540;2022-07-10T07:37:22;10.50;;;2.08;;
49366;SDS011;35245;52.026;8.540;2022-07-10T07:39:50;9.13;;;1.80;;
49366;SDS011;35245;52.026;8.540;2022-07-10T07:42:17;9.98;;;1.85;;
49366;SDS011;35245;52.026;8.540;2022-07-10T07:44:44;12.50;;;1.80;;
49366;SDS011;35245;52.026;8.540;2022-07-10T07:47:12;8.32;;;2.00;;
49366;SDS011;35245;52.026;8.540;2022-07-10T07:49:39;7.93;;;1.70;;
49366;SDS011;35245;52.026;8.540;2022-07-10T07:52:06;10.43;;;2.08;;
49366;SDS011;35245;52.026;8.540;2022-07-10T07:54:34;13.57;;;1.90;;
49366;SDS011;35245;52.026;8.540;2022-07-10T07:57:01;9.63;;;1.73;;
49366;SDS011;35245;52.026;8.540;2022-07-10T07:59:28;9.70;;;1.75;;
49366;SDS011;35245;52.026;8.540;2022-07-10T08:01:55;9.82;;;1.85;;
49366;SDS011;35245;52.026;8.540;2022-07-10T08:04:23;7.40;;;2.08;;
49366;SDS011;35245;52.026;8.540;2022-07-10T08:06:51;8.65;;;1.80;;
49366;SDS011;35245;52.026;8.540;2022-07-10T08:09:19;7.22;;;1.73;;
49366;SDS011;35245;52.026;8.540;2022-07-10T08:11:46;11.10;;;2.13;;
49366;SDS011;35245;52.026;8.540;2022-07-10T08:14:13;8.40;;;1.90;;
49366;SDS011;35245;52.026;8.540;2022-07-10T08:16:40;9.10;;;2.38;;
49366;SDS011;35245;52.026;8.540;2022-07-10T08:19:07;6.50;;;1.63;;
49366;SDS011;35245;52.026;8.540;2022-07-10T08:21:36;6.93;;;1.70;;
49366;SDS011;35245;52.026;8.540;2022-07-10T08:24:03;7.20;;;1.45;;
49366;SDS011;35245;52.026;8.540;2022-07-10T08:26:31;8.75;;;1.88;;
49366;SDS011;35245;52.026;8.540;2022-07-10T08:28:58;10.45;;;2.08;;
49366;SDS011;35245;52.026;8.540;2022-07-10T08:31:25;5.03;;;1.38;;
49366;SDS011;35245;52.026;8.540;2022-07-10T08:33:52;5.90;;;1.42;;
49366;SDS011;35245;52.026;8.540;2022-07-10T08:36:19;7.68;;;1.42;;
49366;SDS011;35245;52.026;8.540;2022-07-10T08:38:48;6.53;;;1.10;;
49366;SDS011;35245;52.026;8.540;2022-07-10T08:41:15;8.75;;;1.70;;
49366;SDS011;35245;52.026;8.540;2022-07-10T08:43:44;6.10;;;1.50;;
49366;SDS011;35245;52.026;8.540;2022-07-10T08:46:11;6.93;;;1.25;;
49366;SDS011;35245;52.026;8.540;2022-07-10T08:48:39;8.80;;;1.67;;
49366;SDS011;35245;52.026;8.540;2022-07-10T08:51:07;4.68;;;1.20;;
49366;SDS011;35245;52.026;8.540;2022-07-10T08:53:36;5.43;;;1.33;;
49366;SDS011;35245;52.026;8.540;2022-07-10T08:56:07;6.32;;;1.25;;
49366;SDS011;35245;52.026;8.540;2022-07-10T08:58:34;7.38;;;1.60;;
49366;SDS011;35245;52.026;8.540;2022-07-10T09:01:02;7.63;;;1.45;;
49366;SDS011;35245;52.026;8.540;2022-07-10T09:03:29;5.15;;;1.27;;
49366;SDS011;35245;52.026;8.540;2022-07-10T09:05:57;8.40;;;1.90;;
49366;SDS011;35245;52.026;8.540;2022-07-10T09:08:25;5.97;;;1.13;;
49366;SDS011;35245;52.026;8.540;2022-07-10T09:10:53;6.85;;;1.45;;
49366;SDS011;35245;52.026;8.540;2022-07-10T09:13:48;5.97;;;1.30;;
49366;SDS011;35245;52.026;8.540;2022-07-10T09:16:20;5.18;;;1.13;;
49366;SDS011;35245;52.026;8.540;2022-07-10T09:18:48;8.68;;;1.40;;
49366;SDS011;35245;52.026;8.540;2022-07-10T09:21:15;4.57;;;1.25;;
49366;SDS011;35245;52.026;8.540;2022-07-10T09:23:42;5.07;;;1.15;;
49366;SDS011;35245;52.026;8.540;2022-07-10T09:26:09;5.57;;;1.30;;
49366;SDS011;35245;52.026;8.540;2022-07-10T09:28:38;7.80;;;1.35;;
49366;SDS011;35245;52.026;8.540;2022-07-10T09:31:05;6.60;;;1.40;;
49366;SDS011;35245;52.026;8.540;2022-07-10T09:33:32;3.95;;;1.30;;
49366;SDS011;35245;52.026;8.540;2022-07-10T09:36:01;4.38;;;1.25;;
49366;SDS011;35245;52.026;8.540;2022-07-10T09:41:17;7.88;;;1.70;;
49366;SDS011;35245;52.026;8.540;2022-07-10T09:43:47;6.90;;;1.65;;
49366;SDS011;35245;52.026;8.540;2022-07-10T09:46:15;9.30;;;1.75;;
49366;SDS011;35245;52.026;8.540;2022-07-10T09:48:43;6.20;;;1.48;;
49366;SDS011;35245;52.026;8.540;2022-07-10T09:51:10;8.07;;;1.40;;
49366;SDS011;35245;52.026;8.540;2022-07-10T09:53:38;6.05;;;1.10;;
49366;SDS011;35245;52.026;8.540;2022-07-10T09:56:07;7.22;;;1.48;;
49366;SDS011;35245;52.026;8.540;2022-07-10T09:58:34;5.75;;;1.27;;
49366;SDS011;35245;52.026;8.540;2022-07-10T10:01:04;7.50;;;1.75;;
49366;SDS011;35245;52.026;8.540;2022-07-10T10:03:32;7.55;;;1.60;;
49366;SDS011;35245;52.026;8.540;2022-07-10T10:06:02;4.88;;;1.02;;
49366;SDS011;35245;52.026;8.540;2022-07-10T10:08:31;7.57;;;1.70;;
49366;SDS011;35245;52.026;8.540;2022-07-10T10:11:01;9.57;;;2.17;;
49366;SDS011;35245;52.026;8.540;2022-07-10T10:13:30;5.70;;;1.63;;
49366;SDS011;35245;52.026;8.540;2022-07-10T10:15:57;7.65;;;1.50;;
49366;SDS011;35245;52.026;8.540;2022-07-10T10:18:26;5.70;;;1.77;;
49366;SDS011;35245;52.026;8.540;2022-07-10T10:23:21;4.03;;;1.35;;
49366;SDS011;35245;52.026;8.540;2022-07-10T10:25:50;4.88;;;1.25;;
49366;SDS011;35245;52.026;8.540;2022-07-10T10:28:20;8.18;;;1.50;;
49366;SDS011;35245;52.026;8.540;2022-07-10T10:30:49;5.55;;;1.60;;
49366;SDS011;35245;52.026;8.540;2022-07-10T10:36:12;7.05;;;1.67;;
49366;SDS011;35245;52.026;8.540;2022-07-10T10:39:02;6.93;;;1.40;;
49366;SDS011;35245;52.026;8.540;2022-07-10T10:41:36;5.93;;;1.38;;
49366;SDS011;35245;52.026;8.540;2022-07-10T10:44:20;8.15;;;1.77;;
49366;SDS011;35245;52.026;8.540;2022-07-10T10:46:55;6.72;;;1.58;;
49366;SDS011;35245;52.026;8.540;2022-07-10T10:49:46;6.57;;;1.52;;
49366;SDS011;35245;52.026;8.540;2022-07-10T10:52:18;9.65;;;1.77;;
49366;SDS011;35245;52.026;8.540;2022-07-10T10:55:00;6.95;;;1.67;;
49366;SDS011;35245;52.026;8.540;2022-07-10T10:57:44;7.97;;;1.73;;
49366;SDS011;35245;52.026;8.540;2022-07-10T11:03:13;7.70;;;1.85;;
49366;SDS011;35245;52.026;8.540;2022-07-10T11:05:46;6.97;;;1.45;;
49366;SDS011;35245;52.026;8.540;2022-07-10T11:08:39;5.38;;;1.55;;
49366;SDS011;35245;52.026;8.540;2022-07-10T11:14:05;6.22;;;1.33;;
49366;SDS011;35245;52.026;8.540;2022-07-10T11:16:33;5.18;;;1.85;;
49366;SDS011;35245;52.026;8.540;2022-07-10T11:19:00;8.05;;;3.22;;
49366;SDS011;35245;52.026;8.540;2022-07-10T11:21:32;6.03;;;2.40;;
49366;SDS011;35245;52.026;8.540;2022-07-10T11:26:40;3.88;;;1.20;;
49366;SDS011;35245;52.026;8.540;2022-07-10T11:29:17;6.85;;;1.02;;
49366;SDS011;35245;52.026;8.540;2022-07-10T11:31:51;4.85;;;1.50;;
49366;SDS011;35245;52.026;8.540;2022-07-10T11:34:19;2.38;;;1.00;;
49366;SDS011;35245;52.026;8.540;2022-07-10T11:36:47;2.42;;;0.90;;
49366;SDS011;35245;52.026;8.540;2022-07-10T11:39:15;1.38;;;1.05;;
49366;SDS011;35245;52.026;8.540;2022-07-10T11:41:42;2.72;;;1.38;;
49366;SDS011;35245;52.026;8.540;2022-07-10T11:44:13;3.58;;;0.70;;
49366;SDS011;35245;52.026;8.540;2022-07-10T11:46:42;0.80;;;0.43;;
49366;SDS011;35245;52.026;8.540;2022-07-10T11:49:13;2.28;;;0.80;;
49366;SDS011;35245;52.026;8.540;2022-07-10T11:51:43;2.40;;;0.70;;
49366;SDS011;35245;52.026;8.540;2022-07-10T11:54:13;1.92;;;1.13;;
49366;SDS011;35245;52.026;8.540;2022-07-10T11:56:45;2.42;;;1.30;;
49366;SDS011;35245;52.026;8.540;2022-07-10T11:59:13;3.08;;;1.25;;
49366;SDS011;35245;52.026;8.540;2022-07-10T12:01:42;3.92;;;1.73;;
49366;SDS011;35245;52.026;8.540;2022-07-10T12:04:12;4.05;;;1.67;;
49366;SDS011;35245;52.026;8.540;2022-07-10T12:06:42;4.55;;;1.10;;
49366;SDS011;35245;52.026;8.540;2022-07-10T12:09:10;1.83;;;0.70;;
49366;SDS011;35245;52.026;8.540;2022-07-10T12:11:40;2.63;;;0.88;;
49366;SDS011;35245;52.026;8.540;2022-07-10T12:14:08;1.05;;;0.60;;
49366;SDS011;35245;52.026;8.540;2022-07-10T12:16:38;3.05;;;1.10;;
49366;SDS011;35245;52.026;8.540;2022-07-10T12:19:07;4.65;;;1.63;;
49366;SDS011;35245;52.026;8.540;2022-07-10T12:21:35;3.30;;;1.35;;
49366;SDS011;35245;52.026;8.540;2022-07-10T12:24:03;3.15;;;1.98;;
49366;SDS011;35245;52.026;8.540;2022-07-10T12:26:35;3.95;;;1.65;;
49366;SDS011;35245;52.026;8.540;2022-07-10T12:29:03;2.92;;;1.15;;
49366;SDS011;35245;52.026;8.540;2022-07-10T12:31:31;3.42;;;1.50;;
49366;SDS011;35245;52.026;8.540;2022-07-10T12:33:59;4.65;;;1.90;;
49366;SDS011;35245;52.026;8.540;2022-07-10T12:36:41;2.60;;;1.85;;
49366;SDS011;35245;52.026;8.540;2022-07-10T12:39:10;1.98;;;1.50;;
49366;SDS011;35245;52.026;8.540;2022-07-10T12:47:13;2.58;;;1.10;;
49366;SDS011;35245;52.026;8.540;2022-07-10T12:49:47;2.42;;;0.73;;
49366;SDS011;35245;52.026;8.540;2022-07-10T12:52:19;5.95;;;3.67;;
49366;SDS011;35245;52.026;8.540;2022-07-10T12:54:47;2.40;;;0.82;;
49366;SDS011;35245;52.026;8.540;2022-07-10T12:57:16;3.35;;;1.10;;
49366;SDS011;35245;52.026;8.540;2022-07-10T12:59:43;2.03;;;0.60;;
49366;SDS011;35245;52.026;8.540;2022-07-10T13:02:14;1.55;;;0.93;;
49366;SDS011;35245;52.026;8.540;2022-07-10T13:04:51;0.95;;;0.60;;
49366;SDS011;35245;52.026;8.540;2022-07-10T13:07:19;2.60;;;1.30;;
49366;SDS011;35245;52.026;8.540;2022-07-10T13:09:47;1.45;;;0.82;;
49366;SDS011;35245;52.026;8.540;2022-07-10T13:12:17;0.80;;;0.60;;
49366;SDS011;35245;52.026;8.540;2022-07-10T13:14:44;2.67;;;0.80;;
49366;SDS011;35245;52.026;8.540;2022-07-10T13:17:11;1.20;;;0.45;;
49366;SDS011;35245;52.026;8.540;2022-07-10T13:19:38;2.72;;;0.77;;
49366;SDS011;35245;52.026;8.540;2022-07-10T13:22:05;1.92;;;0.88;;
49366;SDS011;35245;52.026;8.540;2022-07-10T13:24:32;1.77;;;1.02;;
49366;SDS011;35245;52.026;8.540;2022-07-10T13:27:00;2.67;;;1.40;;
49366;SDS011;35245;52.026;8.540;2022-07-10T13:29:28;1.58;;;0.80;;
49366;SDS011;35245;52.026;8.540;2022-07-10T13:31:55;1.38;;;0.40;;
49366;SDS011;35245;52.026;8.540;2022-07-10T13:34:22;1.17;;;0.50;;
49366;SDS011;35245;52.026;8.540;2022-07-10T13:36:49;2.65;;;0.70;;
49366;SDS011;35245;52.026;8.540;2022-07-10T13:39:19;4.63;;;2.30;;
49366;SDS011;35245;52.026;8.540;2022-07-10T13:41:46;1.92;;;1.30;;
49366;SDS011;35245;52.026;8.540;2022-07-10T13:44:13;3.13;;;1.33;;
49366;SDS011;35245;52.026;8.540;2022-07-10T13:46:42;1.10;;;0.50;;
49366;SDS011;35245;52.026;8.540;2022-07-10T13:49:10;2.08;;;1.20;;
49366;SDS011;35245;52.026;8.540;2022-07-10T13:51:37;1.73;;;1.00;;
49366;SDS011;35245;52.026;8.540;2022-07-10T13:54:04;1.02;;;0.60;;
49366;SDS011;35245;52.026;8.540;2022-07-10T13:56:31;2.15;;;0.80;;
49366;SDS011;35245;52.026;8.540;2022-07-10T13:58:58;1.80;;;0.38;;
49366;SDS011;35245;52.026;8.540;2022-07-10T14:01:25;1.90;;;0.60;;
49366;SDS011;35245;52.026;8.540;2022-07-10T14:03:54;1.55;;;0.60;;
49366;SDS011;35245;52.026;8.540;2022-07-10T14:06:21;0.88;;;0.40;;
49366;SDS011;35245;52.026;8.540;2022-07-10T14:08:48;2.17;;;1.30;;
49366;SDS011;35245;52.026;8.540;2022-07-10T14:11:15;1.13;;;0.60;;
49366;SDS011;35245;52.026;8.540;2022-07-10T14:13:44;1.77;;;0.90;;
49366;SDS011;35245;52.026;8.540;2022-07-10T14:16:11;2.13;;;1.17;;
49366;SDS011;35245;52.026;8.540;2022-07-10T14:18:38;6.28;;;2.88;;
49366;SDS011;35245;52.026;8.540;2022-07-10T14:21:08;4.32;;;1.95;;
49366;SDS011;35245;52.026;8.540;2022-07-10T14:23:36;2.28;;;1.10;;
49366;SDS011;35245;52.026;8.540;2022-07-10T14:26:06;1.38;;;0.30;;
49366;SDS011;35245;52.026;8.540;2022-07-10T14:28:34;2.60;;;0.50;;
49366;SDS011;35245;52.026;8.540;2022-07-10T14:31:01;1.95;;;0.30;;
49366;SDS011;35245;52.026;8.540;2022-07-10T14:33:29;1.60;;;0.60;;
49366;SDS011;35245;52.026;8.540;2022-07-10T14:35:57;2.97;;;0.95;;
49366;SDS011;35245;52.026;8.540;2022-07-10T14:38:25;0.75;;;0.45;;
49366;SDS011;35245;52.026;8.540;2022-07-10T14:40:53;2.13;;;0.60;;
49366;SDS011;35245;52.026;8.540;2022-07-10T14:43:21;0.70;;;0.52;;
49366;SDS011;35245;52.026;8.540;2022-07-10T14:45:49;1.75;;;0.63;;
49366;SDS011;35245;52.026;8.540;2022-07-10T14:48:16;1.70;;;0.57;;
49366;SDS011;35245;52.026;8.540;2022-07-10T14:50:43;3.35;;;0.73;;
49366;SDS011;35245;52.026;8.540;2022-07-10T14:53:11;1.10;;;0.40;;
49366;SDS011;35245;52.026;8.540;2022-07-10T14:55:40;1.40;;;0.25;;
49366;SDS011;35245;52.026;8.540;2022-07-10T14:58:07;1.67;;;0.47;;
49366;SDS011;35245;52.026;8.540;2022-07-10T15:00:34;3.60;;;0.43;;
49366;SDS011;35245;52.026;8.540;2022-07-10T15:03:01;1.15;;;0.30;;
49366;SDS011;35245;52.026;8.540;2022-07-10T15:05:28;4.38;;;1.13;;
49366;SDS011;35245;52.026;8.540;2022-07-10T15:07:56;2.85;;;0.77;;
49366;SDS011;35245;52.026;8.540;2022-07-10T15:10:23;0.85;;;0.40;;
49366;SDS011;35245;52.026;8.540;2022-07-10T15:12:51;0.98;;;0.20;;
49366;SDS011;35245;52.026;8.540;2022-07-10T15:15:18;1.15;;;0.35;;